Time;durP1;ratioP1;P1;durP2;ratioP2;P2;SDS_P1;SDS_P2;PMS_P1;PMS_P2;Temp;Humidity;BMP_temperature;BMP_pressure;BME280_temperature;BME280_humidity;BME280_pressure;Samples;Min_cycle;Max_cycle;Signal;HPM_P1;HPM_P2
2021/01/03 00:01:54;;;;;;;11.70;6.80;;;;;;;2.45;69.04;101589.43;1694543;83;21581;-46
2021/01/03 00:04:21;;;;;;;10.08;7.30;;;;;;;2.39;69.09;101583.74;1696011;83;21594;-38
2021/01/03 00:06:52;;;;;;;11.93;8.33;;;;;;;2.36;69.01;101584.64;1694629;83;21157;-43
2021/01/03 00:09:21;;;;;;;13.10;8.43;;;;;;;2.35;68.94;101588.62;1693349;84;21553;-40
2021/01/03 00:11:49;;;;;;;11.88;8.10;;;;;;;2.36;68.84;101589.91;1693894;84;21174;-41
2021/01/03 00:14:17;;;;;;;9.58;7.10;;;;;;;2.35;68.68;101595.20;1694846;83;21134;-40
2021/01/03 00:16:48;;;;;;;12.25;7.47;;;;;;;2.33;68.60;101587.30;1686249;83;21158;-37
2021/01/03 00:19:15;;;;;;;12.15;7.97;;;;;;;2.33;68.52;101593.02;1690372;83;21158;-40
2021/01/03 00:21:43;;;;;;;9.80;7.30;;;;;;;2.31;68.30;101590.38;1695699;83;21174;-40
2021/01/03 00:24:10;;;;;;;10.70;8.03;;;;;;;2.32;68.21;101587.33;1694502;84;21604;-39
2021/01/03 00:26:38;;;;;;;10.75;8.15;;;;;;;2.29;68.06;101582.96;1694838;83;21634;-40
2021/01/03 00:29:05;;;;;;;9.78;7.15;;;;;;;2.26;68.04;101588.67;1677920;83;21139;-40
2021/01/03 00:31:36;;;;;;;9.95;7.25;;;;;;;2.23;68.20;101585.61;1741618;80;21118;-41
2021/01/03 00:34:12;;;;;;;11.57;7.05;;;;;;;2.23;68.32;101587.38;1728976;80;21141;-40
2021/01/03 00:36:40;;;;;;;9.20;6.58;;;;;;;2.22;68.37;101580.34;1744641;80;21142;-40
2021/01/03 00:39:08;;;;;;;9.55;6.87;;;;;;;2.20;68.30;101583.45;1736690;80;21154;-40
2021/01/03 00:41:36;;;;;;;10.03;7.83;;;;;;;2.19;68.49;101586.51;1708567;82;21155;-41
2021/01/03 00:44:05;;;;;;;10.15;6.85;;;;;;;2.20;68.55;101585.64;1741379;80;21441;-38
2021/01/03 00:46:32;;;;;;;11.97;8.25;;;;;;;2.22;68.58;101582.56;1741664;80;21174;-39
2021/01/03 00:49:00;;;;;;;9.60;7.03;;;;;;;2.22;68.70;101578.62;1741017;80;21185;-37
2021/01/03 00:51:28;;;;;;;9.50;6.78;;;;;;;2.21;68.62;101576.84;1706002;82;21153;-41
2021/01/03 00:53:56;;;;;;;9.10;7.20;;;;;;;2.19;68.55;101572.03;1734127;80;21106;-43
2021/01/03 00:56:24;;;;;;;9.28;7.58;;;;;;;2.20;68.69;101578.20;1740743;80;21186;-41
2021/01/03 00:58:51;;;;;;;8.45;7.00;;;;;;;2.21;68.55;101576.84;1748603;80;21610;-41
2021/01/03 01:01:21;;;;;;;11.57;7.72;;;;;;;2.19;68.27;101575.11;1737621;81;21174;-39
2021/01/03 01:03:48;;;;;;;10.13;7.12;;;;;;;2.12;68.26;101575.16;1739444;80;21155;-39
2021/01/03 01:06:16;;;;;;;10.78;6.67;;;;;;;2.11;68.34;101572.53;1741146;81;21134;-42
2021/01/03 01:08:44;;;;;;;11.80;7.90;;;;;;;2.11;68.32;101573.40;1710443;82;21162;-40
2021/01/03 01:11:12;;;;;;;21.97;15.15;;;;;;;2.12;68.24;101575.16;1737040;80;21138;-39
2021/01/03 01:13:39;;;;;;;33.63;22.15;;;;;;;2.13;68.29;101570.32;1742897;80;21582;-40
2021/01/03 01:16:08;;;;;;;18.10;12.88;;;;;;;2.14;68.14;101569.45;1739144;80;21697;-41
2021/01/03 01:18:35;;;;;;;13.15;10.03;;;;;;;2.14;67.95;101564.61;1743043;80;21466;-39
2021/01/03 01:21:04;;;;;;;11.20;7.97;;;;;;;2.14;68.15;101568.55;1744878;80;21582;-40
2021/01/03 01:23:32;;;;;;;12.65;8.25;;;;;;;2.14;68.36;101567.23;1741935;80;21157;-41
2021/01/03 01:25:59;;;;;;;10.60;7.72;;;;;;;2.13;68.38;101573.40;1737733;80;21166;-39
2021/01/03 01:28:28;;;;;;;13.40;8.65;;;;;;;2.13;68.34;101569.00;1741581;80;21169;-40
2021/01/03 01:30:56;;;;;;;9.65;7.87;;;;;;;2.14;68.52;101566.83;1747545;80;21146;-39
2021/01/03 01:33:24;;;;;;;11.03;7.03;;;;;;;2.13;68.75;101561.56;1741481;80;21154;-43
2021/01/03 01:35:52;;;;;;;10.13;7.62;;;;;;;2.13;68.80;101568.14;1733960;80;21294;-39
2021/01/03 01:38:20;;;;;;;10.15;7.47;;;;;;;2.12;68.67;101566.41;1740891;80;21127;-43
2021/01/03 01:40:48;;;;;;;10.13;8.15;;;;;;;2.14;69.09;101578.67;1749603;80;21138;-40
2021/01/03 01:43:17;;;;;;;13.38;7.10;;;;;;;2.17;69.30;101575.14;1743799;80;21138;-43
2021/01/03 01:45:46;;;;;;;10.68;7.83;;;;;;;2.21;69.48;101581.25;1740823;80;21138;-45
2021/01/03 01:48:23;;;;;;;12.63;8.93;;;;;;;2.20;69.41;101581.70;1739905;80;21162;-38
2021/01/03 01:51:07;;;;;;;12.88;9.45;;;;;;;2.21;69.65;101582.11;1740941;80;21574;-43
2021/01/03 01:53:51;;;;;;;15.45;11.53;;;;;;;2.25;69.52;101592.20;1738179;80;21641;-42
2021/01/03 01:56:36;;;;;;;20.12;12.60;;;;;;;2.27;69.83;101588.67;1748795;80;21146;-39
2021/01/03 01:59:21;;;;;;;14.28;11.08;;;;;;;2.32;70.03;101600.05;1740255;80;21627;-44
2021/01/03 02:01:58;;;;;;;21.57;15.55;;;;;;;2.34;70.01;101602.23;1704916;82;21193;-41
2021/01/03 02:04:34;;;;;;;18.00;12.20;;;;;;;2.33;70.53;101604.41;1705759;82;21172;-44
2021/01/03 02:07:10;;;;;;;16.10;10.95;;;;;;;2.33;71.02;101603.55;1682550;82;21174;-40
2021/01/03 02:10:02;;;;;;;15.35;10.93;;;;;;;2.34;71.69;101604.86;1700911;83;21137;-39
2021/01/03 02:12:34;;;;;;;12.88;9.78;;;;;;;2.38;72.43;101611.84;1699349;83;21152;-40
2021/01/03 02:15:14;;;;;;;13.43;10.25;;;;;;;2.47;72.96;101606.06;1790543;77;23424;-41
2021/01/03 02:17:45;;;;;;;14.90;10.82;;;;;;;2.45;73.34;101611.81;1768831;78;21557;-39
2021/01/03 02:20:14;;;;;;;12.90;9.40;;;;;;;2.49;73.94;101612.20;1768132;78;21130;-40
2021/01/03 02:22:57;;;;;;;13.20;9.85;;;;;;;2.53;73.91;101610.86;1782782;79;21149;-38
2021/01/03 02:25:25;;;;;;;12.33;9.85;;;;;;;2.56;74.12;101611.28;1779177;79;21128;-40
2021/01/03 02:28:04;;;;;;;17.82;12.13;;;;;;;2.56;74.26;101604.24;1775577;78;21137;-43
2021/01/03 02:30:32;;;;;;;14.87;10.48;;;;;;;2.56;74.58;101604.69;1770694;78;21129;-39
2021/01/03 02:33:20;;;;;;;13.32;10.63;;;;;;;2.57;74.91;101605.11;1722331;82;21229;-41
2021/01/03 02:35:48;;;;;;;13.55;10.03;;;;;;;2.59;75.11;101596.76;1693256;82;21633;-41
2021/01/03 02:38:21;;;;;;;12.45;10.45;;;;;;;2.63;75.27;101598.95;1700013;83;21570;-40
2021/01/03 02:40:50;;;;;;;14.18;10.70;;;;;;;2.64;75.44;101612.53;1701506;83;21134;-39
2021/01/03 02:43:17;;;;;;;12.43;9.55;;;;;;;2.65;75.60;101606.40;1701203;81;21161;-40
2021/01/03 02:45:45;;;;;;;12.78;10.03;;;;;;;2.67;75.70;101604.59;1702754;83;21157;-39
2021/01/03 02:48:17;;;;;;;11.55;9.43;;;;;;;2.69;75.80;101606.78;1702086;83;21173;-42
2021/01/03 02:50:44;;;;;;;13.70;11.05;;;;;;;2.72;75.86;101604.12;1703923;83;21162;-38
2021/01/03 02:53:12;;;;;;;13.43;9.90;;;;;;;2.73;75.94;101602.80;1701641;83;21578;-40
2021/01/03 02:55:40;;;;;;;13.58;9.83;;;;;;;2.77;75.97;101612.86;1713028;81;21141;-38
2021/01/03 02:58:07;;;;;;;16.02;10.50;;;;;;;2.77;76.00;101609.80;1705809;83;21494;-42
2021/01/03 03:00:37;;;;;;;10.35;8.68;;;;;;;2.79;75.97;101612.41;1715323;82;21189;-42
2021/01/03 03:03:05;;;;;;;11.60;8.65;;;;;;;2.83;75.99;101615.45;1702408;83;21660;-38
2021/01/03 03:05:33;;;;;;;13.18;9.15;;;;;;;2.83;76.04;101610.64;1716671;81;21590;-40
2021/01/03 03:08:01;;;;;;;13.60;9.93;;;;;;;2.83;76.13;101611.95;1704322;83;22074;-42
2021/01/03 03:10:30;;;;;;;12.65;9.73;;;;;;;2.84;76.17;101600.52;1729826;81;21190;-43
2021/01/03 03:12:59;;;;;;;13.43;9.78;;;;;;;2.88;76.16;101607.52;1704546;83;21614;-39
2021/01/03 03:15:32;;;;;;;13.48;9.70;;;;;;;2.91;76.19;101609.67;1713116;82;21614;-38
2021/01/03 03:17:59;;;;;;;;;;;;;;;2.92;76.17;101610.53;1718164;82;21192;-38
2021/01/03 03:20:27;;;;;;;13.75;9.90;;;;;;;2.91;76.18;101608.80;1719175;82;20164;-38
2021/01/03 03:22:55;;;;;;;12.78;10.28;;;;;;;2.91;76.22;101608.80;1715377;82;21131;-38
2021/01/03 03:25:23;;;;;;;11.88;8.60;;;;;;;2.91;76.25;101604.84;1714647;82;21158;-39
2021/01/03 03:27:50;;;;;;;12.53;9.65;;;;;;;2.91;76.21;101605.72;1726981;81;21187;-38
2021/01/03 03:30:20;;;;;;;12.37;8.13;;;;;;;2.91;76.22;101608.34;1730035;81;21150;-39
2021/01/03 03:32:52;;;;;;;11.08;7.97;;;;;;;2.92;76.20;101604.81;1699703;83;21145;-44
2021/01/03 03:35:24;;;;;;;13.48;8.90;;;;;;;2.91;76.20;101604.40;1727323;82;21154;-42
2021/01/03 03:37:51;;;;;;;11.70;8.53;;;;;;;2.90;76.23;101604.40;1728093;81;21138;-39
2021/01/03 03:40:19;;;;;;;12.23;8.75;;;;;;;2.91;76.22;101608.80;1710628;82;21161;-41
2021/01/03 03:42:47;;;;;;;10.25;7.75;;;;;;;2.91;76.22;101605.72;1727060;81;21158;-41
2021/01/03 03:45:15;;;;;;;12.45;8.20;;;;;;;2.92;76.21;101612.72;1699910;83;21157;-43
2021/01/03 03:47:43;;;;;;;11.85;9.48;;;;;;;2.94;76.19;101614.91;1715308;82;21121;-42
2021/01/03 03:50:17;;;;;;;12.10;8.73;;;;;;;2.92;76.22;101611.41;1709244;82;21691;-41
2021/01/03 03:52:44;;;;;;;12.20;8.95;;;;;;;2.92;76.22;101615.80;1703754;83;21150;-41
2021/01/03 03:55:13;;;;;;;9.70;7.03;;;;;;;2.94;76.23;101617.98;1712150;82;21118;-41
2021/01/03 03:57:40;;;;;;;10.08;7.30;;;;;;;2.97;76.20;101616.64;1713736;82;21157;-42
2021/01/03 04:00:10;;;;;;;10.98;8.20;;;;;;;3.01;76.12;101621.00;1706565;83;21166;-38
2021/01/03 04:02:42;;;;;;;12.93;9.18;;;;;;;3.00;76.11;101621.45;1709139;82;21505;-44
2021/01/03 04:05:12;;;;;;;12.40;8.80;;;;;;;3.01;76.09;101625.83;1708177;82;21126;-42
2021/01/03 04:07:40;;;;;;;13.28;9.13;;;;;;;3.01;76.11;101623.19;1710758;82;21169;-43
2021/01/03 04:10:09;;;;;;;15.68;9.83;;;;;;;3.03;76.10;101617.91;1708906;83;21161;-39
2021/01/03 04:12:36;;;;;;;12.35;8.45;;;;;;;3.03;76.09;101623.19;1722701;82;21185;-43
2021/01/03 04:15:09;;;;;;;10.25;7.80;;;;;;;3.02;76.14;101622.73;1703415;83;21165;-43
2021/01/03 04:17:38;;;;;;;12.35;8.63;;;;;;;3.01;76.21;101623.64;1706286;83;21157;-42
2021/01/03 04:20:07;;;;;;;12.13;7.70;;;;;;;3.02;76.28;101630.64;1702299;82;21151;-40
2021/01/03 04:22:35;;;;;;;11.57;7.95;;;;;;;2.96;76.37;101630.72;1704568;82;21149;-39
2021/01/03 04:25:02;;;;;;;10.58;6.95;;;;;;;2.93;76.50;101628.11;1698348;82;21161;-39
2021/01/03 04:27:30;;;;;;;9.53;7.58;;;;;;;2.91;76.55;101630.75;1703618;82;21147;-41
2021/01/03 04:29:57;;;;;;;10.20;7.58;;;;;;;2.92;76.59;101635.57;1723010;82;21649;-46
2021/01/03 04:32:25;;;;;;;9.83;6.87;;;;;;;2.90;76.69;101634.28;1706555;83;21542;-40
2021/01/03 04:34:52;;;;;;;13.48;8.78;;;;;;;2.88;76.79;101633.87;1709689;83;22116;-43
2021/01/03 04:37:20;;;;;;;10.35;6.85;;;;;;;2.91;76.86;101633.38;1710309;83;21169;-42
2021/01/03 04:39:48;;;;;;;10.40;7.12;;;;;;;2.93;76.83;101642.61;1720220;82;21190;-46
2021/01/03 04:42:18;;;;;;;9.38;7.58;;;;;;;2.94;76.83;101633.80;1710297;83;21174;-40
2021/01/03 04:44:49;;;;;;;11.28;7.62;;;;;;;2.95;76.82;101631.16;1702174;83;21122;-39
2021/01/03 04:47:36;;;;;;;10.45;7.55;;;;;;;2.94;76.89;101631.16;1701631;83;22110;-39
2021/01/03 04:50:21;;;;;;;9.30;6.35;;;;;;;2.92;76.84;101628.53;1702465;83;21797;-41
2021/01/03 04:53:29;;;;;;;10.88;7.58;;;;;;;2.93;76.88;101636.02;1703962;83;21154;-40
2021/01/03 04:56:22;;;;;;;11.50;7.55;;;;;;;2.92;76.89;101632.94;1722030;82;21138;-41
2021/01/03 04:59:13;;;;;;;12.30;8.23;;;;;;;2.96;76.86;101634.67;1710071;83;21554;-43
2021/01/03 05:02:04;;;;;;;8.48;6.75;;;;;;;2.95;76.86;101636.88;1690411;83;21165;-42
2021/01/03 05:05:24;;;;;;;8.78;6.05;;;;;;;2.96;76.85;101642.57;1707367;83;21166;-42
2021/01/03 05:08:03;;;;;;;9.55;6.70;;;;;;;2.96;76.86;101638.17;1710180;83;21143;-42
2021/01/03 05:10:31;;;;;;;10.35;6.85;;;;;;;2.98;76.84;101648.27;1704511;83;21154;-37
2021/01/03 05:13:31;;;;;;;9.70;6.67;;;;;;;2.95;76.79;101639.07;1705567;83;21153;-39
2021/01/03 05:15:59;;;;;;;12.37;7.33;;;;;;;2.97;76.82;101649.58;1702595;83;21657;-43
2021/01/03 05:18:26;;;;;;;9.48;6.92;;;;;;;3.02;76.76;101654.36;1698389;83;21126;-38
2021/01/03 05:20:57;;;;;;;10.80;6.87;;;;;;;3.01;76.86;101656.13;1698822;83;21151;-39
2021/01/03 05:23:27;;;;;;;10.45;7.30;;;;;;;3.03;76.81;101660.09;1703912;83;21158;-40
2021/01/03 05:25:55;;;;;;;10.93;7.20;;;;;;;3.08;76.75;101669.28;1701380;83;21559;-40
2021/01/03 05:28:29;;;;;;;7.92;6.03;;;;;;;3.10;76.78;101660.47;1757530;80;21534;-41
2021/01/03 05:31:18;;;;;;;9.28;6.72;;;;;;;3.10;76.72;101660.47;1703714;82;21182;-38
2021/01/03 05:34:00;;;;;;;7.58;5.15;;;;;;;3.09;76.90;101662.66;1698657;82;21142;-39
2021/01/03 05:36:34;;;;;;;8.78;6.20;;;;;;;3.08;77.12;101663.55;1691666;83;21192;-39
2021/01/03 05:39:06;;;;;;;8.25;6.35;;;;;;;3.13;77.24;101665.70;1714159;82;21134;-40
2021/01/03 05:41:48;;;;;;;8.25;4.87;;;;;;;3.12;77.39;101663.94;1695150;82;21103;-39
2021/01/03 05:44:29;;;;;;;6.83;4.62;;;;;;;3.12;77.38;101667.89;1698163;82;21968;-38
2021/01/03 05:47:18;;;;;;;8.03;6.25;;;;;;;3.15;77.44;101668.30;1674334;83;21646;-39
2021/01/03 05:50:11;;;;;;;8.08;5.75;;;;;;;3.18;77.41;101666.53;1693971;83;21543;-41
2021/01/03 05:53:06;;;;;;;8.00;5.05;;;;;;;3.20;77.42;101661.23;1752688;80;21138;-41
2021/01/03 05:55:35;;;;;;;8.65;4.28;;;;;;;3.21;77.31;101661.67;1757504;80;21141;-39
2021/01/03 05:58:27;;;;;;;7.25;5.08;;;;;;;3.25;77.22;101661.64;1733818;80;21142;-40
2021/01/03 06:00:55;;;;;;;8.23;5.35;;;;;;;3.28;77.12;101666.02;1763449;80;21653;-39
2021/01/03 06:03:30;;;;;;;7.53;5.30;;;;;;;3.30;76.99;101667.30;1759945;80;21141;-38
2021/01/03 06:06:19;;;;;;;9.33;6.10;;;;;;;3.27;76.87;101669.97;1757682;80;21105;-39
2021/01/03 06:08:48;;;;;;;9.53;6.05;;;;;;;3.25;76.77;101672.61;1676152;83;21198;-39
2021/01/03 06:11:20;;;;;;;9.93;5.83;;;;;;;3.22;76.81;101675.28;1697134;83;21186;-39
2021/01/03 06:13:55;;;;;;;8.83;5.83;;;;;;;3.20;76.75;101672.67;1699023;83;21149;-42
2021/01/03 06:16:32;;;;;;;8.28;5.20;;;;;;;3.21;76.83;101667.81;1700347;83;21174;-39
2021/01/03 06:19:35;;;;;;;9.90;5.83;;;;;;;3.25;76.78;101667.33;1679587;83;21126;-39
2021/01/03 06:22:08;;;;;;;7.95;5.85;;;;;;;3.25;76.75;101666.91;1703253;83;21159;-39
2021/01/03 06:24:36;;;;;;;8.95;5.90;;;;;;;3.23;76.80;101670.00;1719757;82;21142;-41
2021/01/03 06:27:06;;;;;;;7.87;5.17;;;;;;;3.24;76.79;101666.91;1708259;80;21618;-42
2021/01/03 06:29:48;;;;;;;8.98;6.17;;;;;;;3.22;76.81;101671.32;1752566;80;21559;-40
2021/01/03 06:32:51;;;;;;;7.75;5.37;;;;;;;3.21;77.06;101667.81;1698840;83;21150;-39
2021/01/03 06:35:32;;;;;;;7.87;5.05;;;;;;;3.21;76.90;101666.50;1753611;80;21162;-39
2021/01/03 06:38:17;;;;;;;8.70;6.10;;;;;;;3.24;76.86;101674.83;1753600;80;21126;-39
2021/01/03 06:41:06;;;;;;;9.28;5.78;;;;;;;3.24;76.79;101665.59;1755740;80;21171;-39
2021/01/03 06:44:14;;;;;;;8.20;5.25;;;;;;;3.23;76.83;101666.50;1756785;80;21511;-38
2021/01/03 06:47:04;;;;;;;7.42;5.00;;;;;;;3.21;76.88;101657.72;1758485;80;21130;-40
2021/01/03 06:49:54;;;;;;;6.87;4.80;;;;;;;3.19;76.96;101665.63;1698827;83;21122;-40
2021/01/03 06:52:41;;;;;;;7.47;5.58;;;;;;;3.24;77.01;101666.91;1752380;80;21131;-39
2021/01/03 06:55:31;;;;;;;6.65;4.95;;;;;;;3.23;77.02;101666.05;1764327;80;21127;-41
2021/01/03 06:58:21;;;;;;;7.85;5.05;;;;;;;3.21;77.04;101668.27;1708846;83;21126;-40
2021/01/03 07:00:52;;;;;;;9.20;5.20;;;;;;;3.23;77.11;101668.69;1759886;80;21166;-39
2021/01/03 07:03:22;;;;;;;;;;;;;;;3.25;77.26;101673.50;1757159;80;21134;-38
2021/01/03 07:06:04;;;;;;;6.17;4.30;;;;;;;3.26;77.16;101673.05;1754718;80;20561;-38
2021/01/03 07:08:45;;;;;;;6.83;4.85;;;;;;;3.29;77.23;101673.47;1753513;80;21113;-37
2021/01/03 07:11:51;;;;;;;8.93;5.85;;;;;;;3.28;77.23;101664.69;1760212;80;21130;-38
2021/01/03 07:14:28;;;;;;;7.58;5.37;;;;;;;3.27;77.29;101672.60;1751655;80;21164;-38
2021/01/03 07:17:15;;;;;;;6.67;4.95;;;;;;;3.25;77.40;101669.55;1751930;80;21182;-40
2021/01/03 07:19:55;;;;;;;6.47;4.58;;;;;;;3.27;77.38;101669.97;1752163;81;21138;-39
2021/01/03 07:22:34;;;;;;;7.50;5.53;;;;;;;3.26;77.40;101665.14;1754870;80;21563;-40
2021/01/03 07:25:22;;;;;;;6.90;5.30;;;;;;;3.29;77.53;101669.06;1754101;80;21122;-38
2021/01/03 07:28:09;;;;;;;7.72;5.47;;;;;;;3.32;77.52;101669.03;1749123;81;21138;-39
2021/01/03 07:30:42;;;;;;;9.40;5.45;;;;;;;3.35;77.51;101671.66;1707158;82;21130;-42
2021/01/03 07:33:17;;;;;;;6.55;5.00;;;;;;;3.39;77.54;101668.53;1752635;81;21092;-42
2021/01/03 07:35:44;;;;;;;8.28;5.40;;;;;;;3.42;77.76;101672.45;1688858;83;21162;-40
2021/01/03 07:38:24;;;;;;;5.95;4.20;;;;;;;3.45;78.15;101665.81;1746742;81;21913;-40
2021/01/03 07:41:06;;;;;;;8.65;5.45;;;;;;;3.51;78.17;101667.09;1751432;81;22384;-40
2021/01/03 07:43:56;;;;;;;8.38;6.20;;;;;;;3.56;77.85;101666.59;1730259;81;21134;-43
2021/01/03 07:46:52;;;;;;;8.03;5.87;;;;;;;3.55;77.83;101666.15;1755918;80;21145;-41
2021/01/03 07:49:27;;;;;;;8.85;5.50;;;;;;;3.56;77.89;101669.23;1751838;81;21150;-39
2021/01/03 07:51:54;;;;;;;7.60;5.12;;;;;;;3.63;77.82;101664.78;1694832;83;21171;-39
2021/01/03 07:54:22;;;;;;;11.22;7.35;;;;;;;3.63;77.83;101661.69;1716649;82;21179;-40
2021/01/03 07:56:49;;;;;;;8.88;6.03;;;;;;;3.64;77.69;101659.47;1747340;81;21122;-40
2021/01/03 07:59:17;;;;;;;8.35;6.58;;;;;;;3.66;77.67;101658.14;1752614;80;21146;-42
2021/01/03 08:01:51;;;;;;;11.12;6.50;;;;;;;3.67;77.53;101662.06;1743837;81;21991;-39
2021/01/03 08:04:29;;;;;;;8.43;5.80;;;;;;;3.67;77.45;101658.11;1748895;80;21134;-40
2021/01/03 08:07:17;;;;;;;8.38;5.28;;;;;;;3.69;77.42;101658.09;1753927;80;21543;-44
2021/01/03 08:09:44;;;;;;;9.35;5.95;;;;;;;3.69;77.27;101658.09;1749670;81;21130;-41
2021/01/03 08:12:29;;;;;;;9.83;6.58;;;;;;;3.72;77.26;101659.83;1749861;80;21151;-44
2021/01/03 08:15:10;;;;;;;8.63;5.95;;;;;;;3.74;77.09;101655.41;1744766;80;21150;-41
2021/01/03 08:17:42;;;;;;;8.10;6.05;;;;;;;3.76;76.90;101658.46;1750302;81;21189;-40
2021/01/03 08:20:20;;;;;;;10.23;5.95;;;;;;;3.76;76.75;101661.10;1739543;80;21135;-40
2021/01/03 08:22:47;;;;;;;7.35;5.35;;;;;;;3.76;76.55;101658.46;1741762;80;21669;-39
2021/01/03 08:25:27;;;;;;;9.45;6.15;;;;;;;3.75;76.37;101659.78;1744031;80;21143;-38
2021/01/03 08:28:08;;;;;;;9.15;6.05;;;;;;;3.73;76.29;101654.55;1745502;80;21172;-39
2021/01/03 08:30:36;;;;;;;9.60;6.62;;;;;;;3.72;76.19;101658.06;1746710;81;21130;-40
2021/01/03 08:33:23;;;;;;;12.15;6.50;;;;;;;3.72;76.14;101658.51;1747937;80;21162;-40
2021/01/03 08:35:50;;;;;;;11.12;8.03;;;;;;;3.75;76.04;101659.33;1746895;80;21110;-39
2021/01/03 08:38:27;;;;;;;11.48;7.75;;;;;;;3.74;75.90;101653.64;1745430;80;21559;-38
2021/01/03 08:41:04;;;;;;;13.40;7.72;;;;;;;3.72;75.83;101662.02;1742211;81;21150;-40
2021/01/03 08:43:31;;;;;;;13.68;7.17;;;;;;;3.73;75.81;101660.24;1729164;81;21119;-39
2021/01/03 08:46:03;;;;;;;10.32;6.90;;;;;;;3.72;75.73;101662.02;1693419;84;21150;-39
2021/01/03 08:48:31;;;;;;;8.95;6.65;;;;;;;3.77;75.61;101666.80;1684037;84;21179;-40
2021/01/03 08:51:12;;;;;;;10.90;7.10;;;;;;;3.79;75.46;101664.15;1713063;82;21292;-40
2021/01/03 08:54:09;;;;;;;11.30;8.98;;;;;;;3.85;75.37;101663.61;1883820;74;27973;-40
2021/01/03 08:56:46;;;;;;;9.00;7.22;;;;;;;3.83;75.35;101664.52;1799623;78;21282;-38
2021/01/03 08:59:15;;;;;;;10.93;7.00;;;;;;;3.92;75.17;101669.70;1791679;78;21170;-39
2021/01/03 09:01:43;;;;;;;12.28;6.92;;;;;;;3.95;75.12;101673.61;1785846;78;21165;-39
2021/01/03 09:04:19;;;;;;;10.35;7.10;;;;;;;3.98;75.02;101681.52;1796181;78;21109;-40
2021/01/03 09:06:57;;;;;;;9.98;7.55;;;;;;;3.99;74.96;101683.25;1777797;79;21116;-38
2021/01/03 09:09:28;;;;;;;11.35;7.67;;;;;;;3.96;74.72;101688.58;1805419;78;21137;-39
2021/01/03 09:12:01;;;;;;;;;;;;;;;3.98;74.92;101688.54;1797111;77;21145;-37
2021/01/03 09:14:36;;;;;;;12.03;6.87;;;;;;;4.00;74.83;101688.95;1791878;77;20198;-38
2021/01/03 09:17:21;;;;;;;9.03;6.75;;;;;;;4.01;74.73;101685.89;1781791;78;21149;-38
2021/01/03 09:20:21;;;;;;;10.00;7.30;;;;;;;4.00;74.63;101684.98;1795741;78;21165;-38
2021/01/03 09:22:52;;;;;;;13.38;8.33;;;;;;;3.98;74.60;101682.84;1799306;78;21220;-40
2021/01/03 09:25:32;;;;;;;12.45;7.50;;;;;;;3.99;74.71;101681.07;1789964;77;21151;-40
2021/01/03 09:28:26;;;;;;;11.43;7.90;;;;;;;3.99;74.87;101679.75;1787001;78;21140;-38
2021/01/03 09:31:23;;;;;;;14.05;8.43;;;;;;;4.01;74.71;101678.84;1776701;78;21200;-40
2021/01/03 09:34:17;;;;;;;9.80;7.10;;;;;;;3.99;74.51;101680.61;1786279;79;21165;-37
2021/01/03 09:37:01;;;;;;;12.05;7.60;;;;;;;3.95;74.54;101674.06;1753623;79;21165;-38
2021/01/03 09:39:51;;;;;;;12.68;8.48;;;;;;;3.94;74.67;101671.02;1752658;79;21157;-38
2021/01/03 09:42:39;;;;;;;11.88;8.15;;;;;;;3.96;74.81;101671.88;1759180;80;21157;-38
2021/01/03 09:45:15;;;;;;;11.83;7.83;;;;;;;3.97;74.90;101669.20;1761810;80;21138;-38
2021/01/03 09:47:45;;;;;;;10.85;7.12;;;;;;;3.99;74.95;101667.87;1755196;79;21679;-39
2021/01/03 09:50:26;;;;;;;9.77;7.20;;;;;;;4.02;74.95;101671.33;1764414;79;21145;-38
2021/01/03 09:53:28;;;;;;;12.78;8.50;;;;;;;4.03;75.02;101661.22;1740619;80;22190;-41
2021/01/03 09:56:07;;;;;;;15.48;7.83;;;;;;;4.09;75.09;101670.81;1779062;78;21238;-39
2021/01/03 09:58:40;;;;;;;12.30;7.40;;;;;;;4.13;75.00;101656.66;1765559;79;21159;-40
2021/01/03 10:01:30;;;;;;;13.72;7.53;;;;;;;4.15;74.98;101649.59;1794091;78;21122;-40
2021/01/03 10:04:27;;;;;;;11.43;8.13;;;;;;;4.17;75.01;101650.45;1781773;78;21492;-40
2021/01/03 10:07:08;;;;;;;12.37;7.80;;;;;;;4.18;75.01;101648.23;1769056;79;21984;-39
2021/01/03 10:09:36;;;;;;;15.30;8.33;;;;;;;4.18;74.83;101642.95;1749463;80;21182;-39
2021/01/03 10:12:31;;;;;;;11.48;7.15;;;;;;;4.19;74.84;101639.44;1740681;80;21196;-38
2021/01/03 10:15:22;;;;;;;9.18;6.22;;;;;;;4.23;74.68;101638.94;1719734;82;21287;-40
2021/01/03 10:17:57;;;;;;;10.35;6.15;;;;;;;4.23;74.32;101641.58;1746209;80;21657;-38
2021/01/03 10:20:41;;;;;;;10.65;6.72;;;;;;;4.21;74.04;101648.22;1742326;80;21625;-38
2021/01/03 10:23:13;;;;;;;13.18;7.22;;;;;;;4.16;73.94;101642.12;1741274;80;21906;-40
2021/01/03 10:25:41;;;;;;;13.53;7.67;;;;;;;4.17;74.06;101641.67;1745862;80;21174;-39
2021/01/03 10:28:13;;;;;;;11.18;6.42;;;;;;;4.17;74.05;101639.03;1738464;80;21173;-40
2021/01/03 10:30:42;;;;;;;13.50;8.40;;;;;;;4.17;74.07;101639.03;1742140;80;21190;-38
2021/01/03 10:33:10;;;;;;;9.98;6.28;;;;;;;4.17;74.08;101635.07;1739603;80;21148;-37
2021/01/03 10:35:38;;;;;;;10.13;6.87;;;;;;;4.19;74.12;101637.25;1743491;80;21718;-38
2021/01/03 10:38:06;;;;;;;9.68;6.67;;;;;;;4.21;74.14;101636.75;1734469;79;22088;-39
2021/01/03 10:40:35;;;;;;;8.33;6.62;;;;;;;4.21;74.13;101627.52;1744937;80;21343;-39
2021/01/03 10:43:03;;;;;;;7.78;5.65;;;;;;;4.22;74.21;101626.19;1726757;81;21171;-39
2021/01/03 10:45:31;;;;;;;10.13;6.90;;;;;;;4.25;74.25;101626.59;1731414;80;21172;-40
2021/01/03 10:47:59;;;;;;;11.80;7.20;;;;;;;4.27;74.30;101630.09;1755769;79;21157;-39
2021/01/03 10:50:26;;;;;;;12.00;6.80;;;;;;;4.31;74.48;101630.03;1765332;80;21118;-39
2021/01/03 10:52:54;;;;;;;9.10;5.55;;;;;;;4.36;74.53;101622.04;1744641;80;21168;-38
2021/01/03 10:55:22;;;;;;;10.70;6.85;;;;;;;4.42;74.76;101621.94;1759059;79;21664;-39
2021/01/03 10:57:51;;;;;;;7.80;6.33;;;;;;;4.48;74.59;101619.19;1766691;79;21165;-38
2021/01/03 11:00:20;;;;;;;11.05;7.12;;;;;;;4.53;74.37;101615.16;1780714;78;21147;-39
2021/01/03 11:02:48;;;;;;;7.33;5.70;;;;;;;4.57;74.13;101612.04;1777537;79;21489;-39
2021/01/03 11:05:17;;;;;;;6.87;4.72;;;;;;;4.59;74.07;101619.05;1796352;78;21581;-37
2021/01/03 11:07:45;;;;;;;8.60;4.92;;;;;;;4.61;73.65;101614.61;1758258;80;21657;-38
2021/01/03 11:10:13;;;;;;;8.93;5.25;;;;;;;4.58;73.18;101610.67;1750766;80;21707;-39
2021/01/03 11:12:40;;;;;;;7.80;5.97;;;;;;;4.55;73.26;101609.41;1766534;80;21190;-41
2021/01/03 11:15:11;;;;;;;7.42;4.62;;;;;;;4.55;73.27;101602.80;1769021;80;21110;-39
2021/01/03 11:17:40;;;;;;;9.87;5.70;;;;;;;4.55;73.38;101599.70;1792231;78;21137;-39
2021/01/03 11:20:09;;;;;;;7.62;4.60;;;;;;;4.57;73.34;101605.44;1809244;78;21139;-39
2021/01/03 11:22:36;;;;;;;6.42;4.65;;;;;;;4.56;73.41;101601.89;1792085;78;21157;-46
2021/01/03 11:25:08;;;;;;;7.87;4.47;;;;;;;4.55;73.38;101602.34;1803871;78;21141;-43
2021/01/03 11:27:36;;;;;;;6.60;4.53;;;;;;;4.57;73.49;101588.27;1789715;78;21654;-41
2021/01/03 11:30:29;;;;;;;7.58;4.95;;;;;;;4.60;73.51;101590.84;1795098;78;21097;-41
2021/01/03 11:33:02;;;;;;;7.50;5.00;;;;;;;4.60;73.55;101598.31;1807644;78;21582;-46
2021/01/03 11:35:30;;;;;;;8.20;4.03;;;;;;;4.63;73.61;101600.03;1790999;78;21663;-46
2021/01/03 11:37:59;;;;;;;6.35;3.95;;;;;;;4.64;73.61;101594.73;1749337;80;21173;-45
2021/01/03 11:40:27;;;;;;;5.22;4.08;;;;;;;4.65;73.54;101593.83;1795664;77;21154;-45
2021/01/03 11:42:57;;;;;;;7.40;3.67;;;;;;;4.67;73.50;101578.83;1797437;78;21593;-46
2021/01/03 11:45:24;;;;;;;8.53;4.03;;;;;;;4.70;73.46;101591.12;1799579;77;21168;-42
2021/01/03 11:47:54;;;;;;;6.90;3.87;;;;;;;4.69;73.58;101602.59;1769401;79;21692;-40
2021/01/03 11:50:23;;;;;;;5.15;3.58;;;;;;;4.72;73.56;101594.16;1758096;80;21189;-45
2021/01/03 11:52:51;;;;;;;4.60;3.65;;;;;;;4.73;73.47;101587.09;1773273;79;21479;-45
2021/01/03 11:55:19;;;;;;;5.42;3.83;;;;;;;4.75;73.46;101595.42;1763793;78;21145;-42
2021/01/03 11:57:47;;;;;;;6.78;4.10;;;;;;;4.76;73.62;101594.97;1771286;79;21148;-41
2021/01/03 12:00:16;;;;;;;7.37;4.20;;;;;;;4.77;73.62;101593.63;1774746;79;21289;-44
2021/01/03 12:02:44;;;;;;;5.20;4.15;;;;;;;4.77;73.58;101592.31;1776574;78;21137;-46
2021/01/03 12:05:17;;;;;;;7.15;4.15;;;;;;;4.81;73.57;101597.53;1761588;80;21191;-41